Indian River Shores, Florida
Current Conditions -  °F | °C
As of 12:53 PM on Friday 24 Oct 2014 (Local Time) from KVRB Reporting Station
Scattered Clouds Scattered Clouds  
Wind Chill: 26°   Ceiling: Unl
Heat Index: 27°   Visibility: 10mi
Dew Point: 15°   Wind: 10mph
Humidity: 50%   Direction: 50°NE
Pressure: 29.95"   Gusts: NA
Location:  27.7066°N, 80.3826°W
Report Text: KVRB 241653Z 05009KT 10SM SCT040 26/15 A2995 RMK AO2 SLP140 T02610150
Loading
Personal Weather Stations






























Interactive Weather Map
Tropical Storm Tracking
New forecast layout! Learn more

10-Day Weather Forecast

Advertisements
Track Severe Weather on mobile